Time;durP1;ratioP1;P1;durP2;ratioP2;P2;SDS_P1;SDS_P2;PMS_P1;PMS_P2;Temp;Humidity;BMP_temperature;BMP_pressure;BME280_temperature;BME280_humidity;BME280_pressure;Samples;Min_cycle;Max_cycle;Signal;HPM_P1;HPM_P2
2022/01/22 00:00:22;;;;;;;7.40;3.10;;;4.20;70.20;;;;;;5056734;28;20044;-75
2022/01/22 00:02:49;;;;;;;7.18;3.75;;;4.20;70.30;;;;;;5071353;28;20040;-76
2022/01/22 00:05:16;;;;;;;6.90;3.17;;;4.20;70.10;;;;;;5046899;28;20021;-75
2022/01/22 00:07:42;;;;;;;5.63;3.47;;;4.20;70.00;;;;;;5064642;28;20025;-76
2022/01/22 00:10:14;;;;;;;6.53;3.80;;;4.20;69.80;;;;;;5053448;28;20082;-75
2022/01/22 00:13:06;;;;;;;6.85;3.60;;;4.20;69.70;;;;;;5053736;28;20033;-76
2022/01/22 00:15:31;;;;;;;8.07;3.72;;;4.20;69.70;;;;;;5051994;28;20021;-75
2022/01/22 00:17:57;;;;;;;8.02;3.55;;;4.20;70.10;;;;;;5052452;28;20370;-75
2022/01/22 00:20:25;;;;;;;7.70;3.70;;;4.20;70.00;;;;;;5054108;28;20021;-76
2022/01/22 00:22:51;;;;;;;6.55;3.45;;;4.20;70.00;;;;;;5058139;28;20041;-76
2022/01/22 00:25:20;;;;;;;6.25;3.42;;;4.10;70.00;;;;;;5050709;28;20032;-75
2022/01/22 00:27:47;;;;;;;8.35;4.30;;;4.10;70.10;;;;;;5050678;28;20029;-75
2022/01/22 00:30:16;;;;;;;7.82;3.45;;;4.10;70.00;;;;;;5051946;28;20029;-76
2022/01/22 00:32:42;;;;;;;11.93;3.90;;;4.10;70.20;;;;;;5058520;28;20027;-76
2022/01/22 00:35:08;;;;;;;5.68;3.00;;;4.10;70.10;;;;;;5058834;28;20021;-76
2022/01/22 00:37:35;;;;;;;6.93;3.80;;;4.10;70.40;;;;;;5059296;28;20032;-75
2022/01/22 00:40:03;;;;;;;5.50;3.25;;;4.10;70.40;;;;;;5051931;28;20075;-76
2022/01/22 00:42:31;;;;;;;8.63;3.30;;;4.10;70.20;;;;;;5076753;28;20462;-75
2022/01/22 00:44:56;;;;;;;8.15;3.55;;;4.10;70.30;;;;;;5039368;28;20028;-75
2022/01/22 00:47:22;;;;;;;5.78;3.55;;;4.10;70.20;;;;;;5052238;28;20481;-75
2022/01/22 00:49:48;;;;;;;4.60;3.25;;;4.40;70.40;;;;;;5050863;28;20027;-76
2022/01/22 00:52:14;;;;;;;8.68;3.45;;;4.10;70.30;;;;;;5051609;28;20028;-76
2022/01/22 00:54:40;;;;;;;5.65;3.10;;;4.10;70.40;;;;;;5062121;28;20048;-75
2022/01/22 00:57:05;;;;;;;5.22;3.10;;;4.10;70.50;;;;;;5053650;28;20017;-76
2022/01/22 00:59:31;;;;;;;5.95;3.58;;;4.10;70.40;;;;;;5051637;28;20028;-75
2022/01/22 01:01:57;;;;;;;5.93;2.78;;;4.10;70.30;;;;;;5062768;28;20047;-75
2022/01/22 01:04:23;;;;;;;4.93;2.65;;;4.10;70.40;;;;;;5060911;28;20021;-75
2022/01/22 01:06:49;;;;;;;6.55;3.55;;;4.10;70.40;;;;;;5058006;28;20389;-76
2022/01/22 01:09:16;;;;;;;4.47;2.85;;;4.20;71.20;;;;;;5054391;28;20032;-75
2022/01/22 01:11:47;;;;;;;6.25;2.78;;;4.10;71.20;;;;;;5067300;28;20122;-76
2022/01/22 01:14:19;;;;;;;5.60;3.20;;;4.10;70.90;;;;;;5063020;28;20028;-76
2022/01/22 01:33:18;;;;;;;;;;;4.10;70.40;;;;;;5055613;28;20036;-75
2022/01/22 01:35:44;;;;;;;6.30;2.83;;;4.20;71.00;;;;;;5054840;28;20384;-75
2022/01/22 01:38:09;;;;;;;4.10;2.70;;;4.20;71.00;;;;;;5068843;28;20028;-75
2022/01/22 01:40:42;;;;;;;3.67;2.45;;;4.30;71.20;;;;;;5066609;28;20024;-75
2022/01/22 01:45:34;;;;;;;3.95;2.60;;;4.10;71.30;;;;;;5054816;28;20055;-76
2022/01/22 01:48:06;;;;;;;3.03;2.35;;;4.20;71.40;;;;;;5054082;28;20126;-76
2022/01/22 01:50:35;;;;;;;4.07;2.92;;;4.10;71.70;;;;;;5055168;28;20392;-76
2022/01/22 01:55:47;;;;;;;7.63;3.33;;;4.20;71.30;;;;;;5055025;28;20067;-75
2022/01/22 01:58:13;;;;;;;4.57;2.60;;;4.20;71.20;;;;;;5065457;28;20389;-75
2022/01/22 02:00:39;;;;;;;4.90;2.70;;;4.20;71.00;;;;;;5060418;28;20426;-75
2022/01/22 02:03:08;;;;;;;3.55;2.50;;;4.20;71.00;;;;;;5054757;28;20079;-75
2022/01/22 02:05:35;;;;;;;3.63;2.65;;;4.20;71.20;;;;;;5064226;28;20039;-75
2022/01/22 02:08:00;;;;;;;3.97;2.45;;;4.40;71.60;;;;;;5066540;28;20021;-74
2022/01/22 02:10:30;;;;;;;2.95;2.33;;;4.20;71.60;;;;;;5055743;28;20032;-76
2022/01/22 02:23:45;;;;;;;;;;;4.10;71.30;;;;;;5066735;28;20508;-76
2022/01/22 02:26:14;;;;;;;4.57;2.22;;;4.20;71.40;;;;;;5072034;28;19912;-76
2022/01/22 02:28:41;;;;;;;3.42;2.13;;;4.10;70.90;;;;;;5046923;28;20021;-76
2022/01/22 02:34:12;;;;;;;5.50;2.80;;;4.10;72.10;;;;;;5064989;28;20036;-76
2022/01/22 02:41:43;;;;;;;4.45;3.08;;;4.10;71.90;;;;;;5053917;28;20551;-75
2022/01/22 02:44:15;;;;;;;4.97;3.05;;;4.10;72.50;;;;;;5053384;28;20091;-76
2022/01/22 02:46:43;;;;;;;4.50;2.67;;;4.10;72.90;;;;;;5059585;28;20044;-76
2022/01/22 02:49:08;;;;;;;4.22;3.25;;;4.10;72.10;;;;;;5058048;28;20048;-76
2022/01/22 02:51:34;;;;;;;5.03;2.88;;;4.10;71.70;;;;;;5066201;28;20060;-76
2022/01/22 02:54:00;;;;;;;4.80;2.65;;;4.10;71.80;;;;;;5062351;28;20072;-75
2022/01/22 02:56:26;;;;;;;4.03;2.63;;;4.10;72.00;;;;;;5055552;28;20025;-76
2022/01/22 02:58:53;;;;;;;4.32;2.40;;;4.40;72.00;;;;;;5054320;28;20469;-76
2022/01/22 03:01:21;;;;;;;3.20;2.80;;;4.00;71.80;;;;;;5053000;28;20032;-76
2022/01/22 03:03:46;;;;;;;3.90;2.85;;;4.10;72.20;;;;;;5052193;28;20115;-76
2022/01/22 03:06:12;;;;;;;3.88;2.67;;;4.10;72.00;;;;;;5051479;28;20108;-75
2022/01/22 03:08:40;;;;;;;4.70;3.25;;;4.10;72.00;;;;;;5056673;28;20020;-76
2022/01/22 03:11:16;;;;;;;5.47;2.72;;;4.10;71.90;;;;;;5068315;28;20388;-75
2022/01/22 03:16:25;;;;;;;6.47;3.10;;;4.20;71.90;;;;;;5053060;28;20092;-76
2022/01/22 03:19:28;;;;;;;4.65;2.63;;;4.10;72.20;;;;;;5055996;28;20040;-76
2022/01/22 03:21:40;;;;;;;3.60;2.75;;;4.10;72.10;;;;;;5071881;28;20094;-75
2022/01/22 03:29:39;;;;;;;6.97;3.25;;;4.10;72.30;;;;;;5051947;28;20219;-76
2022/01/22 03:32:07;;;;;;;7.32;3.50;;;4.10;72.30;;;;;;5052446;28;20029;-76
2022/01/22 03:34:40;;;;;;;6.57;3.75;;;4.10;72.60;;;;;;5054990;28;20461;-76
2022/01/22 03:37:06;;;;;;;5.95;3.40;;;4.30;73.30;;;;;;5067588;28;20017;-76
2022/01/22 03:39:31;;;;;;;7.15;3.70;;;4.10;72.60;;;;;;5052902;28;20025;-76
2022/01/22 03:41:57;;;;;;;7.97;4.60;;;4.10;72.20;;;;;;5052771;28;20432;-76
2022/01/22 03:44:23;;;;;;;5.78;3.58;;;4.10;73.90;;;;;;5053149;28;20029;-76
2022/01/22 03:46:49;;;;;;;10.52;4.45;;;4.10;73.00;;;;;;5052262;28;20029;-76
2022/01/22 03:49:16;;;;;;;6.05;4.28;;;4.10;72.40;;;;;;5051190;28;20029;-76
2022/01/22 03:51:43;;;;;;;7.50;3.60;;;4.10;72.70;;;;;;5060972;28;20035;-76
2022/01/22 03:54:09;;;;;;;4.55;3.75;;;4.10;72.70;;;;;;5059014;28;20029;-76
2022/01/22 03:56:36;;;;;;;5.22;3.67;;;4.10;72.30;;;;;;5051181;28;20052;-75
2022/01/22 03:59:02;;;;;;;4.85;3.40;;;4.10;72.50;;;;;;5051769;28;20055;-75
2022/01/22 04:04:03;;;;;;;4.57;3.38;;;4.10;72.50;;;;;;5057405;28;20051;-76
2022/01/22 04:08:56;;;;;;;4.68;3.30;;;4.40;72.60;;;;;;5052862;28;20465;-76
2022/01/22 04:11:22;;;;;;;4.38;3.00;;;4.10;72.30;;;;;;5057574;28;20040;-76
2022/01/22 04:13:51;;;;;;;2.70;2.50;;;4.20;72.50;;;;;;5060937;28;20029;-76
2022/01/22 04:16:17;;;;;;;4.75;3.22;;;4.20;72.40;;;;;;5052437;28;20492;-75
2022/01/22 04:26:58;;;;;;;3.08;1.60;;;4.20;72.20;;;;;;5067695;28;20035;-75
2022/01/22 04:29:26;;;;;;;5.30;3.35;;;4.20;72.20;;;;;;5057129;28;20082;-76
2022/01/22 04:31:53;;;;;;;3.42;2.40;;;4.20;72.10;;;;;;5049322;28;20033;-76
2022/01/22 04:34:19;;;;;;;2.83;2.50;;;4.20;72.20;;;;;;5056675;28;20472;-76
2022/01/22 04:36:44;;;;;;;3.38;2.75;;;4.20;72.40;;;;;;5057397;28;20374;-76
2022/01/22 04:39:11;;;;;;;3.30;2.67;;;4.20;72.80;;;;;;5052989;28;20032;-75
2022/01/22 04:41:37;;;;;;;4.35;3.03;;;4.20;72.40;;;;;;5054914;28;20039;-76
2022/01/22 04:44:05;;;;;;;8.05;3.20;;;4.20;72.40;;;;;;5062864;28;20483;-76
2022/01/22 04:49:14;;;;;;;7.05;3.90;;;4.20;72.30;;;;;;5055587;28;20025;-76
2022/01/22 04:57:09;;;;;;;4.20;2.95;;;4.50;72.70;;;;;;5055748;28;20504;-76
2022/01/22 04:59:34;;;;;;;5.30;3.30;;;4.30;72.40;;;;;;5055780;28;20021;-76
2022/01/22 05:02:00;;;;;;;5.93;3.88;;;4.30;72.20;;;;;;5050787;28;20062;-76
2022/01/22 05:04:26;;;;;;;5.47;3.53;;;4.30;72.70;;;;;;5064630;28;20024;-76
2022/01/22 05:06:52;;;;;;;4.20;3.65;;;4.30;72.70;;;;;;5070201;28;20028;-75
2022/01/22 05:09:17;;;;;;;4.40;3.40;;;4.30;72.80;;;;;;5070416;28;20060;-76
2022/01/22 05:11:43;;;;;;;3.88;3.47;;;4.50;72.90;;;;;;5071982;28;20021;-76
2022/01/22 05:14:09;;;;;;;5.32;3.90;;;4.40;72.70;;;;;;5061285;28;20032;-76
2022/01/22 05:16:34;;;;;;;4.78;3.53;;;4.40;72.80;;;;;;5061408;28;20025;-76
2022/01/22 05:19:06;;;;;;;6.00;3.83;;;4.40;72.70;;;;;;5053932;28;20028;-76
2022/01/22 05:21:34;;;;;;;4.95;3.42;;;4.40;72.40;;;;;;5065803;28;20032;-76
2022/01/22 05:24:05;;;;;;;5.35;3.97;;;4.40;72.40;;;;;;5056268;28;20033;-76
2022/01/22 05:39:21;;;;;;;6.13;4.05;;;4.40;72.60;;;;;;5054790;28;20055;-75
2022/01/22 05:41:47;;;;;;;5.72;4.38;;;4.40;72.60;;;;;;5054716;28;20036;-76
2022/01/22 05:44:13;;;;;;;9.45;5.10;;;4.40;72.60;;;;;;5060827;28;20090;-76
2022/01/22 05:46:39;;;;;;;5.57;4.40;;;4.40;72.70;;;;;;5064398;28;20052;-76
2022/01/22 05:49:06;;;;;;;6.63;4.30;;;4.40;72.80;;;;;;5058022;28;20062;-76
2022/01/22 05:51:33;;;;;;;9.18;4.15;;;4.50;72.70;;;;;;5053701;28;20469;-75
2022/01/22 05:59:37;;;;;;;7.05;4.78;;;4.40;72.30;;;;;;5064717;28;20487;-76
2022/01/22 06:02:08;;;;;;;6.40;4.25;;;4.40;72.60;;;;;;5067951;28;20043;-76
2022/01/22 06:04:34;;;;;;;6.80;4.40;;;4.40;72.70;;;;;;5051777;28;20017;-75
2022/01/22 06:07:01;;;;;;;7.28;4.40;;;4.40;72.70;;;;;;5062602;28;20036;-76
2022/01/22 06:09:27;;;;;;;3.38;2.65;;;4.40;72.60;;;;;;5054041;28;20392;-75
2022/01/22 06:12:04;;;;;;;7.07;4.38;;;4.40;72.60;;;;;;5060703;28;20028;-76
2022/01/22 06:14:30;;;;;;;4.68;3.80;;;4.40;72.40;;;;;;5062500;28;20021;-76
2022/01/22 06:16:56;;;;;;;8.18;4.53;;;4.40;72.40;;;;;;5061967;28;20043;-76
2022/01/22 06:19:21;;;;;;;7.20;4.43;;;4.40;72.30;;;;;;5054450;28;20029;-75
2022/01/22 06:21:50;;;;;;;5.43;3.88;;;4.40;72.60;;;;;;5053168;28;20505;-75
2022/01/22 06:24:16;;;;;;;7.00;4.35;;;4.40;72.70;;;;;;5053828;28;20033;-76
2022/01/22 06:26:41;;;;;;;7.43;4.47;;;4.40;72.90;;;;;;5054099;28;20025;-75
2022/01/22 06:29:07;;;;;;;6.68;4.13;;;4.40;72.60;;;;;;5051923;28;21378;-75
2022/01/22 06:31:33;;;;;;;6.32;4.57;;;4.40;72.60;;;;;;5053439;28;20470;-76
2022/01/22 06:33:59;;;;;;;5.25;4.13;;;4.40;72.50;;;;;;5061048;28;20393;-76
2022/01/22 06:36:26;;;;;;;5.93;4.30;;;4.60;72.70;;;;;;5052140;28;20100;-76
2022/01/22 06:38:57;;;;;;;5.22;4.13;;;4.40;72.40;;;;;;5056585;28;20025;-76
2022/01/22 06:44:07;;;;;;;3.33;2.83;;;4.40;72.50;;;;;;5069143;28;20044;-76
2022/01/22 06:46:32;;;;;;;5.72;4.00;;;4.40;72.40;;;;;;5061520;28;20029;-76
2022/01/22 06:48:58;;;;;;;5.57;3.90;;;4.40;73.10;;;;;;5056935;28;20085;-76
2022/01/22 06:51:25;;;;;;;4.97;4.30;;;4.40;72.50;;;;;;5053441;28;21967;-75
2022/01/22 06:53:53;;;;;;;5.88;4.88;;;4.40;72.40;;;;;;5052928;28;20028;-75
2022/01/22 06:56:20;;;;;;;4.45;3.40;;;4.40;72.40;;;;;;5064092;28;20044;-75
2022/01/22 06:58:48;;;;;;;5.60;3.25;;;4.40;72.40;;;;;;5066461;28;20036;-76
2022/01/22 07:01:14;;;;;;;4.72;3.58;;;4.40;72.60;;;;;;5053432;28;20037;-76
2022/01/22 07:03:40;;;;;;;3.55;2.97;;;4.40;72.80;;;;;;5054576;28;20028;-75
2022/01/22 07:06:05;;;;;;;5.05;3.88;;;4.40;72.60;;;;;;5053094;28;20037;-75
2022/01/22 07:08:31;;;;;;;4.97;3.58;;;4.40;72.50;;;;;;5053258;28;20058;-75
2022/01/22 07:10:57;;;;;;;4.07;3.38;;;4.40;72.40;;;;;;5051605;28;20040;-76
2022/01/22 07:13:22;;;;;;;4.90;3.92;;;4.40;72.30;;;;;;5051719;28;20114;-76
2022/01/22 07:15:48;;;;;;;3.88;3.05;;;4.40;72.40;;;;;;5059944;28;20492;-76
2022/01/22 07:18:14;;;;;;;3.60;2.78;;;4.40;72.50;;;;;;5058994;28;20106;-76
2022/01/22 07:20:42;;;;;;;4.80;3.55;;;4.40;72.60;;;;;;5062506;28;20047;-75
2022/01/22 07:25:52;;;;;;;4.18;3.60;;;4.40;72.70;;;;;;5053996;28;20032;-76
2022/01/22 07:28:18;;;;;;;4.65;3.45;;;4.40;72.90;;;;;;5052654;28;20024;-75
2022/01/22 07:30:46;;;;;;;5.75;3.70;;;4.40;72.40;;;;;;5061504;28;20094;-74
2022/01/22 07:33:12;;;;;;;4.82;3.28;;;4.40;72.50;;;;;;5056871;28;20024;-74
2022/01/22 07:35:38;;;;;;;5.82;3.75;;;4.40;72.60;;;;;;5058759;28;20521;-74
2022/01/22 07:38:04;;;;;;;3.35;3.05;;;4.40;72.80;;;;;;5060002;28;20116;-75
2022/01/22 07:40:31;;;;;;;3.97;3.58;;;4.40;72.80;;;;;;5052717;28;20055;-75
2022/01/22 07:42:57;;;;;;;3.85;3.08;;;4.40;73.00;;;;;;5052597;28;20416;-75
2022/01/22 07:45:23;;;;;;;4.32;3.05;;;4.40;73.30;;;;;;5056509;28;20043;-75
2022/01/22 07:47:48;;;;;;;5.50;3.17;;;4.40;72.90;;;;;;5051591;28;20367;-75
2022/01/22 07:50:14;;;;;;;3.78;2.92;;;4.40;72.80;;;;;;5052634;28;20103;-75
2022/01/22 07:52:40;;;;;;;3.40;3.00;;;4.50;72.90;;;;;;5058998;28;20362;-74
2022/01/22 07:55:07;;;;;;;3.92;3.10;;;4.50;73.00;;;;;;5052952;28;20567;-74
2022/01/22 07:57:33;;;;;;;3.05;2.47;;;4.50;73.00;;;;;;5058220;28;20028;-73
2022/01/22 07:59:59;;;;;;;4.88;3.20;;;4.50;72.80;;;;;;5054346;28;20099;-74
2022/01/22 08:02:25;;;;;;;3.75;3.17;;;4.50;72.70;;;;;;5052611;28;20532;-75
2022/01/22 08:04:50;;;;;;;6.65;3.28;;;4.50;73.10;;;;;;5052724;28;20025;-75
2022/01/22 08:07:16;;;;;;;4.40;3.22;;;4.50;73.00;;;;;;5051595;28;21817;-74
2022/01/22 08:09:45;;;;;;;4.28;3.20;;;4.50;72.70;;;;;;5052530;28;20025;-74
2022/01/22 08:12:11;;;;;;;5.15;3.60;;;4.50;72.90;;;;;;5050796;28;20071;-74
2022/01/22 08:14:37;;;;;;;6.43;3.10;;;4.50;72.70;;;;;;5054851;28;20032;-74
2022/01/22 08:17:03;;;;;;;5.43;4.03;;;4.50;72.90;;;;;;5058487;28;20032;-75
2022/01/22 08:19:28;;;;;;;6.07;4.10;;;4.50;72.90;;;;;;5036498;28;20060;-75
2022/01/22 08:21:54;;;;;;;4.65;3.40;;;4.50;72.90;;;;;;5053537;28;20033;-75
2022/01/22 08:24:24;;;;;;;3.80;3.13;;;4.50;72.90;;;;;;5050351;28;20430;-75
2022/01/22 08:27:05;;;;;;;4.30;3.38;;;4.80;72.90;;;;;;5060950;28;20021;-75
2022/01/22 08:29:31;;;;;;;4.63;3.28;;;4.50;72.70;;;;;;5055604;28;20049;-75
2022/01/22 08:32:09;;;;;;;3.25;2.80;;;4.50;72.70;;;;;;5054621;28;20029;-74
2022/01/22 08:37:20;;;;;;;3.40;2.80;;;4.60;72.70;;;;;;5050532;28;20040;-75
2022/01/22 08:39:46;;;;;;;2.28;2.00;;;4.60;72.80;;;;;;5049341;28;20037;-75
2022/01/22 08:42:11;;;;;;;2.85;2.55;;;4.60;72.90;;;;;;5058544;28;20049;-75
2022/01/22 08:44:39;;;;;;;3.92;2.55;;;4.60;72.80;;;;;;5054617;28;20061;-75
2022/01/22 08:47:05;;;;;;;2.90;2.60;;;4.70;73.00;;;;;;5066560;28;20036;-74
2022/01/22 08:49:31;;;;;;;6.60;3.60;;;4.70;72.90;;;;;;5058206;28;20067;-74
2022/01/22 08:51:57;;;;;;;6.00;2.90;;;4.70;72.70;;;;;;5054228;28;20065;-72
2022/01/22 08:54:23;;;;;;;3.25;2.55;;;4.70;72.80;;;;;;5056569;28;20516;-72
2022/01/22 08:56:48;;;;;;;3.35;2.72;;;4.80;72.90;;;;;;5055359;28;20037;-71
2022/01/22 08:59:15;;;;;;;4.43;2.85;;;4.80;72.80;;;;;;5057501;28;20031;-72
2022/01/22 09:01:43;;;;;;;2.95;2.58;;;4.80;72.80;;;;;;5050807;28;20163;-72
2022/01/22 09:04:09;;;;;;;3.60;2.90;;;4.80;72.80;;;;;;5052336;28;20029;-72
2022/01/22 09:06:36;;;;;;;2.15;1.95;;;4.90;72.60;;;;;;5052115;28;20021;-72
2022/01/22 09:09:09;;;;;;;2.53;2.33;;;4.90;72.50;;;;;;5052572;28;20163;-72
2022/01/22 09:11:36;;;;;;;2.83;2.50;;;4.90;72.70;;;;;;5051812;28;20060;-71
2022/01/22 09:14:04;;;;;;;3.45;2.83;;;4.90;72.60;;;;;;5049753;28;20046;-71
2022/01/22 09:16:30;;;;;;;4.07;2.50;;;4.90;72.50;;;;;;5043615;28;20029;-71
2022/01/22 09:19:00;;;;;;;3.22;2.30;;;5.00;72.50;;;;;;5046147;28;20029;-71
2022/01/22 09:21:26;;;;;;;2.88;2.42;;;5.00;72.40;;;;;;5053785;28;20028;-71
2022/01/22 09:23:52;;;;;;;2.05;1.73;;;5.00;72.30;;;;;;5046294;28;20140;-71
2022/01/22 09:26:19;;;;;;;3.08;2.20;;;5.00;72.40;;;;;;5041966;28;20021;-71
2022/01/22 09:28:46;;;;;;;2.50;2.30;;;5.00;72.60;;;;;;5042273;28;20017;-71
2022/01/22 09:31:12;;;;;;;2.25;2.03;;;5.00;72.50;;;;;;5054159;28;20504;-71
2022/01/22 09:33:39;;;;;;;3.05;2.10;;;5.10;72.40;;;;;;5062902;28;20020;-71
2022/01/22 09:36:05;;;;;;;2.50;2.30;;;5.10;72.30;;;;;;5043348;28;20029;-71
2022/01/22 09:38:32;;;;;;;2.78;2.33;;;5.10;72.30;;;;;;5035871;28;20057;-71
2022/01/22 09:40:58;;;;;;;2.90;2.17;;;5.10;72.40;;;;;;5035789;28;20083;-71
2022/01/22 09:43:23;;;;;;;7.82;6.70;;;5.10;72.50;;;;;;5034349;28;20044;-71
2022/01/22 09:45:50;;;;;;;7.43;6.35;;;5.20;72.50;;;;;;5033298;28;20025;-71
2022/01/22 09:48:16;;;;;;;3.85;3.30;;;5.20;72.50;;;;;;5045542;28;20026;-71
2022/01/22 09:50:42;;;;;;;4.82;4.32;;;5.20;72.40;;;;;;5056710;28;20458;-71
2022/01/22 09:53:07;;;;;;;3.00;2.70;;;5.20;72.40;;;;;;5035848;28;20025;-71
2022/01/22 09:55:33;;;;;;;3.95;2.67;;;5.20;72.40;;;;;;5051362;28;20087;-71
2022/01/22 09:57:59;;;;;;;2.90;2.45;;;5.30;72.20;;;;;;5046187;28;20067;-70
2022/01/22 10:00:26;;;;;;;3.30;2.90;;;5.30;72.30;;;;;;5034343;28;20029;-71
2022/01/22 10:02:55;;;;;;;2.95;2.65;;;5.30;71.90;;;;;;5074962;28;20043;-71
2022/01/22 10:05:37;;;;;;;3.97;2.63;;;5.30;71.80;;;;;;5045559;28;20029;-71
2022/01/22 10:08:27;;;;;;;5.13;3.53;;;5.30;71.90;;;;;;5051688;28;20155;-71
2022/01/22 10:10:53;;;;;;;4.35;3.30;;;5.30;71.90;;;;;;5052281;28;20490;-72
2022/01/22 10:13:38;;;;;;;5.05;3.65;;;5.30;71.70;;;;;;5053255;28;20087;-73
2022/01/22 10:16:31;;;;;;;5.70;3.63;;;5.30;72.10;;;;;;5049956;28;20112;-73
2022/01/22 10:19:18;;;;;;;4.55;3.50;;;5.30;72.30;;;;;;5052092;28;20037;-74
2022/01/22 10:21:43;;;;;;;4.40;3.80;;;5.40;72.20;;;;;;5052026;28;20032;-72
2022/01/22 10:24:28;;;;;;;4.32;3.53;;;5.30;71.90;;;;;;5053548;28;20037;-73
2022/01/22 10:27:35;;;;;;;7.07;3.85;;;5.30;72.10;;;;;;5051614;28;20033;-73
2022/01/22 10:30:19;;;;;;;5.68;3.90;;;5.30;72.30;;;;;;5055878;28;20130;-72
2022/01/22 10:33:11;;;;;;;8.65;4.10;;;5.30;72.10;;;;;;5052897;28;20078;-72
2022/01/22 10:35:37;;;;;;;6.82;4.65;;;5.30;72.10;;;;;;5050544;28;20044;-72
2022/01/22 10:38:04;;;;;;;10.55;5.82;;;5.40;72.00;;;;;;5052557;28;20029;-72
2022/01/22 10:40:38;;;;;;;7.80;4.35;;;5.30;72.40;;;;;;5051928;28;20029;-72
2022/01/22 10:43:15;;;;;;;;;;;5.20;72.10;;;;;;5052408;28;20392;-73
2022/01/22 10:45:55;;;;;;;5.95;4.38;;;5.30;72.20;;;;;;5053192;28;20312;-72
2022/01/22 10:48:21;;;;;;;5.32;4.05;;;5.20;71.80;;;;;;5052239;28;20032;-71
2022/01/22 10:51:20;;;;;;;6.63;4.32;;;5.20;72.10;;;;;;5053868;28;20029;-73
2022/01/22 10:53:48;;;;;;;7.05;4.63;;;5.20;72.50;;;;;;5030917;28;20493;-72
2022/01/22 10:56:19;;;;;;;9.48;5.63;;;5.20;72.40;;;;;;5053739;28;20025;-72
2022/01/22 10:59:08;;;;;;;8.00;5.20;;;5.30;72.50;;;;;;5060801;28;20025;-73
2022/01/22 11:01:55;;;;;;;5.75;3.92;;;5.30;73.00;;;;;;5073440;28;20108;-73
2022/01/22 11:04:23;;;;;;;5.65;3.92;;;5.40;72.70;;;;;;5052915;28;20044;-73
2022/01/22 11:06:51;;;;;;;8.68;4.88;;;5.40;72.30;;;;;;5033544;28;20030;-72
2022/01/22 11:09:18;;;;;;;6.57;4.55;;;5.40;72.30;;;;;;5033600;28;20101;-73
2022/01/22 11:11:43;;;;;;;5.45;4.28;;;5.50;72.20;;;;;;5061040;28;20028;-73
2022/01/22 11:14:11;;;;;;;6.88;3.78;;;5.50;72.00;;;;;;5060470;28;20040;-72
2022/01/22 11:16:38;;;;;;;5.47;3.65;;;5.50;71.90;;;;;;5052075;28;20385;-72
2022/01/22 11:19:04;;;;;;;4.60;3.55;;;5.50;71.80;;;;;;5053287;28;20032;-72
2022/01/22 11:21:31;;;;;;;5.10;3.58;;;5.50;71.80;;;;;;5053307;28;20616;-72
2022/01/22 11:23:58;;;;;;;4.88;3.88;;;5.50;71.80;;;;;;5051821;28;20371;-72
2022/01/22 11:26:24;;;;;;;4.95;3.38;;;5.60;72.00;;;;;;5052942;28;20025;-72
2022/01/22 11:28:52;;;;;;;4.03;3.30;;;5.60;71.70;;;;;;5059613;28;20389;-71
2022/01/22 11:31:19;;;;;;;5.32;3.88;;;5.60;71.80;;;;;;5073147;28;20043;-72
2022/01/22 11:33:47;;;;;;;4.68;3.30;;;5.60;71.80;;;;;;5071582;28;20028;-72
2022/01/22 11:36:28;;;;;;;7.38;4.38;;;5.60;71.60;;;;;;5071739;28;20056;-72
2022/01/22 11:38:57;;;;;;;6.47;3.97;;;5.60;71.70;;;;;;5073028;28;20028;-72
2022/01/22 11:41:23;;;;;;;4.90;3.58;;;5.60;71.80;;;;;;5056113;28;20397;-72
2022/01/22 11:44:17;;;;;;;6.75;4.07;;;5.60;71.90;;;;;;5065468;28;20123;-72
2022/01/22 11:46:41;;;;;;;5.03;3.70;;;5.60;72.90;;;;;;5072521;28;20119;-73
2022/01/22 11:50:04;;;;;;;5.03;3.80;;;5.70;72.20;;;;;;5071985;28;20020;-73
2022/01/22 11:52:33;;;;;;;9.32;4.70;;;5.80;72.10;;;;;;5033809;28;20231;-72
2022/01/22 11:55:01;;;;;;;6.35;4.13;;;5.80;71.70;;;;;;5050241;28;20040;-72
2022/01/22 11:57:31;;;;;;;7.43;4.20;;;5.80;71.80;;;;;;5059308;28;20037;-72
2022/01/22 12:00:23;;;;;;;9.13;5.15;;;5.80;71.70;;;;;;5052666;28;20025;-72
2022/01/22 12:03:07;;;;;;;6.43;4.53;;;5.80;71.60;;;;;;5052591;28;20037;-72
2022/01/22 12:05:32;;;;;;;4.63;3.72;;;5.90;71.70;;;;;;5052408;28;20104;-72
2022/01/22 12:08:00;;;;;;;5.30;3.45;;;5.90;71.60;;;;;;5052506;28;20104;-71
2022/01/22 12:10:42;;;;;;;6.82;4.00;;;5.80;71.60;;;;;;5063091;28;20058;-72
2022/01/22 12:16:10;;;;;;;5.05;4.15;;;5.90;71.60;;;;;;5052765;28;20076;-73
2022/01/22 12:18:43;;;;;;;5.57;4.32;;;5.90;71.50;;;;;;5051153;28;20017;-72
2022/01/22 12:23:56;;;;;;;5.68;4.35;;;6.00;71.70;;;;;;5052232;28;20123;-73
2022/01/22 12:26:59;;;;;;;5.20;3.80;;;6.00;71.80;;;;;;5051155;28;20057;-73
2022/01/22 12:29:28;;;;;;;5.40;4.18;;;6.00;72.00;;;;;;5030926;28;20137;-72
2022/01/22 12:32:19;;;;;;;6.30;4.32;;;6.00;71.30;;;;;;5032459;28;20029;-72
2022/01/22 12:34:51;;;;;;;6.60;4.03;;;6.10;71.60;;;;;;5031216;28;20022;-72
2022/01/22 12:37:19;;;;;;;5.40;3.85;;;6.10;71.50;;;;;;5038885;28;20435;-72
2022/01/22 12:39:50;;;;;;;6.40;4.38;;;6.10;71.40;;;;;;5072384;28;20059;-72
2022/01/22 12:42:25;;;;;;;7.25;4.20;;;6.10;71.20;;;;;;5070920;28;20093;-73
2022/01/22 12:44:58;;;;;;;35.85;12.25;;;6.10;71.10;;;;;;5070993;28;20423;-73
2022/01/22 12:47:27;;;;;;;7.88;4.90;;;6.10;71.20;;;;;;5060459;28;20362;-73
2022/01/22 12:50:06;;;;;;;16.65;7.53;;;6.10;71.30;;;;;;5055430;28;20032;-72
2022/01/22 12:52:37;;;;;;;17.77;7.38;;;6.10;71.20;;;;;;5054700;28;20060;-73
2022/01/22 12:55:28;;;;;;;176.00;62.58;;;6.10;71.30;;;;;;5051306;28;20017;-72
2022/01/22 12:57:55;;;;;;;21.90;12.18;;;6.10;71.60;;;;;;5057537;28;20028;-72
2022/01/22 13:00:21;;;;;;;12.98;7.18;;;6.10;71.50;;;;;;5052095;28;20017;-72
2022/01/22 13:02:55;;;;;;;7.40;4.80;;;6.10;71.40;;;;;;5060810;28;20043;-72
2022/01/22 13:05:23;;;;;;;5.60;4.25;;;6.10;71.30;;;;;;5048438;28;20147;-72
2022/01/22 13:07:53;;;;;;;8.95;4.75;;;6.10;71.20;;;;;;5040413;28;20033;-71
2022/01/22 13:10:23;;;;;;;5.68;4.28;;;6.10;71.20;;;;;;5038764;28;20017;-71
2022/01/22 13:12:49;;;;;;;9.48;5.63;;;6.00;71.10;;;;;;5043668;28;20032;-71
2022/01/22 13:15:17;;;;;;;8.32;5.97;;;6.00;71.00;;;;;;5055243;28;20124;-71
2022/01/22 13:17:51;;;;;;;8.45;5.03;;;5.90;71.10;;;;;;5057577;28;20032;-71
2022/01/22 13:20:26;;;;;;;8.70;5.40;;;5.90;71.50;;;;;;5068924;28;20386;-71
2022/01/22 13:22:52;;;;;;;;;;;5.90;71.80;;;;;;5034446;28;20084;-71
2022/01/22 13:25:18;;;;;;;11.77;5.95;;;5.80;71.90;;;;;;5049974;28;19987;-72
2022/01/22 13:28:07;;;;;;;8.95;5.88;;;5.70;71.30;;;;;;5066298;28;20056;-71
2022/01/22 13:30:39;;;;;;;8.35;5.82;;;5.70;71.50;;;;;;5054917;28;20552;-71
2022/01/22 13:49:12;;;;;;;13.00;7.45;;;5.60;72.20;;;;;;5051303;28;20401;-71
2022/01/22 13:51:39;;;;;;;15.15;9.48;;;5.60;72.00;;;;;;5046030;28;20028;-71
2022/01/22 13:54:05;;;;;;;13.40;8.00;;;5.60;72.40;;;;;;5050330;28;20507;-71
2022/01/22 13:56:57;;;;;;;9.75;7.10;;;5.60;72.50;;;;;;5047043;28;20071;-71
2022/01/22 13:59:31;;;;;;;13.65;8.27;;;5.50;72.50;;;;;;5065949;28;20026;-71
2022/01/22 14:02:08;;;;;;;;;;;5.50;72.50;;;;;;5036506;28;20032;-71
2022/01/22 14:05:00;;;;;;;12.48;7.20;;;5.50;72.40;;;;;;5044574;28;19920;-71
2022/01/22 14:07:38;;;;;;;13.38;7.75;;;5.40;72.40;;;;;;5048863;28;20029;-71
2022/01/22 14:10:08;;;;;;;11.05;7.18;;;5.40;72.60;;;;;;5044957;28;20562;-71
2022/01/22 14:12:51;;;;;;;10.43;7.07;;;5.40;72.60;;;;;;5044810;28;20025;-71
2022/01/22 14:15:28;;;;;;;13.00;7.32;;;5.40;73.40;;;;;;5053602;28;20017;-71
2022/01/22 14:18:09;;;;;;;10.90;7.45;;;5.40;73.40;;;;;;5053565;28;20036;-71
2022/01/22 14:21:09;;;;;;;13.23;7.22;;;5.30;73.10;;;;;;5052353;28;20021;-71
2022/01/22 14:23:36;;;;;;;13.40;7.40;;;5.30;73.50;;;;;;5070251;28;20044;-71
2022/01/22 14:26:34;;;;;;;15.10;8.38;;;5.30;73.10;;;;;;5054858;28;20035;-72
2022/01/22 14:29:07;;;;;;;12.15;7.22;;;5.30;73.70;;;;;;5053433;28;20068;-71
2022/01/22 14:31:47;;;;;;;12.68;7.63;;;5.30;73.50;;;;;;5052157;28;20025;-71
2022/01/22 14:34:34;;;;;;;15.52;8.73;;;5.40;73.40;;;;;;5054770;28;20544;-71
2022/01/22 14:37:02;;;;;;;14.57;8.18;;;5.40;73.40;;;;;;5052562;28;20036;-71
2022/01/22 14:45:21;;;;;;;10.05;6.85;;;5.40;74.00;;;;;;5065992;28;20039;-71
2022/01/22 14:47:53;;;;;;;10.48;7.38;;;5.40;73.80;;;;;;5073442;28;20024;-71
2022/01/22 14:50:20;;;;;;;12.27;7.57;;;5.50;73.80;;;;;;5057257;28;20028;-71
2022/01/22 14:52:49;;;;;;;11.30;7.28;;;5.50;73.90;;;;;;5047914;28;20032;-72
2022/01/22 14:55:15;;;;;;;10.55;7.18;;;5.50;73.90;;;;;;5060840;28;20024;-71
2022/01/22 14:57:42;;;;;;;13.27;7.25;;;5.60;73.80;;;;;;5052636;28;20382;-71
2022/01/22 15:00:11;;;;;;;13.93;7.50;;;5.60;73.60;;;;;;5051142;28;20032;-71
2022/01/22 15:02:39;;;;;;;16.35;8.30;;;5.60;73.40;;;;;;5053122;28;20037;-71
2022/01/22 15:05:12;;;;;;;13.00;7.55;;;5.60;73.40;;;;;;5057604;28;20055;-71
2022/01/22 15:07:38;;;;;;;12.25;8.25;;;5.60;73.40;;;;;;5073315;28;20476;-71
2022/01/22 15:10:05;;;;;;;11.32;6.85;;;5.60;73.50;;;;;;5068002;28;20079;-71
2022/01/22 15:12:33;;;;;;;12.40;7.13;;;5.60;73.80;;;;;;5062717;28;20048;-71
2022/01/22 15:14:59;;;;;;;10.18;6.72;;;5.60;74.00;;;;;;5051469;28;20025;-71